Plaza, Washington
Current Conditions -  °F | °C
As of 10:53 AM on Tuesday 27 Jan 2015 (Local Time) from KGEG Reporting Station
Moderate Fog Moderate Fog  
Wind Chill: -3°   Ceiling: 100
Heat Index:   Visibility: 0.12mi
Dew Point: -1°   Wind: 6mph
Humidity: 96%   Direction: 30°NNE
Pressure: 30.01"   Gusts: NA
Location:  47.2196°N, 117.453°W
Report Text: KGEG 271853Z 03005KT 1/8SM R03/0700FT FG VV001 00/M01 A3001 RMK AO2 SLP180 TWR VIS 4+ T00001006
Loading
Personal Weather Stations






























Interactive Weather Map New forecast layout! Learn more

10-Day Weather Forecast

Advertisements
Track Severe Weather on mobile